createdAt,value
2023-07-18T00:01:32.973Z,101106.25
2023-07-18T00:03:59.512Z,101104.50
2023-07-18T00:06:26.008Z,101108.88
2023-07-18T00:08:52.484Z,101107.06
2023-07-18T00:11:19.339Z,101107.94
2023-07-18T00:13:46.035Z,101103.50
2023-07-18T00:16:12.996Z,101106.16
2023-07-18T00:18:39.502Z,101106.97
2023-07-18T00:21:06.602Z,101104.19
2023-07-18T00:23:33.065Z,101096.06
2023-07-18T00:25:59.495Z,101097.81
2023-07-18T00:28:26.339Z,101099.78
2023-07-18T00:30:52.841Z,101102.47
2023-07-18T00:33:19.256Z,101091.72
2023-07-18T00:35:45.680Z,101097.00
2023-07-18T00:38:12.868Z,101099.78
2023-07-18T00:46:10.833Z,101109.47
2023-07-18T00:48:37.783Z,101119.13
2023-07-18T00:51:08.460Z,101117.28
2023-07-18T00:53:38.236Z,101112.81
2023-07-18T00:56:05.678Z,101112.75
2023-07-18T00:58:32.184Z,101116.44
2023-07-18T01:01:00.164Z,101108.56
2023-07-18T01:03:26.769Z,101105.13
2023-07-18T01:05:55.144Z,101109.63
2023-07-18T01:08:21.552Z,101107.84
2023-07-18T01:10:48.092Z,101112.28
2023-07-18T01:13:14.444Z,101105.16
2023-07-18T01:15:40.786Z,101113.19
2023-07-18T01:18:10.156Z,101102.50
2023-07-18T01:20:37.598Z,101098.03
2023-07-18T01:23:07.470Z,101102.47
2023-07-18T01:25:35.127Z,101101.59
2023-07-18T01:28:01.860Z,101107.69
2023-07-18T01:30:29.098Z,101096.03
2023-07-18T01:32:55.980Z,101096.81
2023-07-18T01:35:26.279Z,101088.63
2023-07-18T01:37:54.376Z,101084.94
2023-07-18T01:40:21.645Z,101093.69
2023-07-18T01:42:51.307Z,101096.19
2023-07-18T01:45:19.334Z,101094.59
2023-07-18T01:47:47.159Z,101088.38
2023-07-18T01:50:14.022Z,101092.88
2023-07-18T01:52:40.792Z,101091.72
2023-07-18T01:55:07.748Z,101087.13
2023-07-18T01:57:36.849Z,101084.22
2023-07-18T02:00:04.636Z,101084.38
2023-07-18T02:02:31.240Z,101079.22
2023-07-18T02:04:58.268Z,101080.13
2023-07-18T02:07:24.682Z,101083.47
2023-07-18T02:09:51.030Z,101073.50
2023-07-18T02:12:17.565Z,101067.41
2023-07-18T02:14:44.275Z,101079.09
2023-07-18T02:17:10.742Z,101069.41
2023-07-18T02:19:37.177Z,101080.91
2023-07-18T02:22:04.633Z,101086.19
2023-07-18T02:24:31.366Z,101094.16
2023-07-18T02:26:59.186Z,101090.50
2023-07-18T02:29:26.254Z,101087.78
2023-07-18T02:31:52.625Z,101085.09
2023-07-18T02:34:19.018Z,101085.13
2023-07-18T02:36:45.363Z,101086.72
2023-07-18T02:39:11.890Z,101083.09
2023-07-18T02:41:38.713Z,101091.81
2023-07-18T02:44:05.794Z,101089.06
2023-07-18T02:46:32.538Z,101081.09
2023-07-18T02:48:59.011Z,101082.22
2023-07-18T02:51:25.365Z,101085.81
2023-07-18T02:53:53.154Z,101081.38
2023-07-18T02:56:19.543Z,101080.50
2023-07-18T02:58:45.872Z,101092.94
2023-07-18T03:01:13.060Z,101093.81
2023-07-18T03:03:39.740Z,101090.16
2023-07-18T03:06:06.268Z,101095.41
2023-07-18T03:08:35.262Z,101098.91
2023-07-18T03:11:02.525Z,101098.91
2023-07-18T03:13:28.973Z,101102.44
2023-07-18T03:15:56.138Z,101092.41
2023-07-18T03:18:23.020Z,101112.78
2023-07-18T03:20:50.056Z,101101.09
2023-07-18T03:23:18.577Z,101099.44
2023-07-18T03:25:45.007Z,101096.84
2023-07-18T03:28:11.371Z,101094.09
2023-07-18T03:30:37.721Z,101091.50
2023-07-18T03:33:04.355Z,101092.41
2023-07-18T03:35:30.716Z,101086.19
2023-07-18T03:37:57.033Z,101086.06
2023-07-18T03:40:23.459Z,101093.09
2023-07-18T03:42:52.058Z,101086.91
2023-07-18T03:45:18.495Z,101086.94
2023-07-18T03:47:45.796Z,101076.31
2023-07-18T03:50:14.071Z,101079.97
2023-07-18T03:52:41.003Z,101083.56
2023-07-18T03:55:08.004Z,101067.53
2023-07-18T03:57:35.285Z,101073.66
2023-07-18T04:00:04.858Z,101077.13
2023-07-18T04:02:31.309Z,101082.38
2023-07-18T04:04:57.724Z,101078.78
2023-07-18T04:07:25.635Z,101070.69
2023-07-18T04:09:52.046Z,101076.00
2023-07-18T04:12:18.478Z,101075.13
2023-07-18T04:14:44.824Z,101072.63
2023-07-18T04:17:11.239Z,101076.31
2023-07-18T04:19:37.645Z,101084.25
2023-07-18T04:22:04.921Z,101080.88
2023-07-18T04:24:32.096Z,101079.31
2023-07-18T04:26:58.516Z,101070.59
2023-07-18T04:29:25.477Z,101073.28
2023-07-18T04:31:52.587Z,101074.34
2023-07-18T04:34:20.004Z,101071.84
2023-07-18T04:36:46.460Z,101059.59
2023-07-18T04:39:12.882Z,101066.72
2023-07-18T04:41:53.499Z,101056.09
2023-07-18T04:44:21.899Z,101057.91
2023-07-18T04:46:48.466Z,101058.91
2023-07-18T04:49:14.860Z,101056.31
2023-07-18T04:51:41.334Z,101061.66
2023-07-18T04:54:08.034Z,101052.00
2023-07-18T04:56:34.397Z,101058.22
2023-07-18T04:59:00.775Z,101058.28
2023-07-18T05:01:29.245Z,101051.22
2023-07-18T05:03:58.644Z,101042.38
2023-07-18T05:06:25.834Z,101053.09
2023-07-18T05:08:52.164Z,101049.59
2023-07-18T05:11:18.980Z,101055.91
2023-07-18T05:13:45.619Z,101051.53
2023-07-18T05:16:11.978Z,101053.38
2023-07-18T05:18:38.359Z,101051.66
2023-07-18T05:21:04.686Z,101054.38
2023-07-18T05:23:31.120Z,101057.16
2023-07-18T05:25:58.434Z,101060.78
2023-07-18T05:28:24.918Z,101051.94
2023-07-18T05:30:51.338Z,101053.78
2023-07-18T05:33:17.703Z,101058.28
2023-07-18T05:35:44.101Z,101053.88
2023-07-18T05:38:10.555Z,101053.91
2023-07-18T05:40:36.938Z,101048.66
2023-07-18T05:43:03.345Z,101045.13
2023-07-18T05:45:29.755Z,101046.03
2023-07-18T05:47:56.182Z,101050.53
2023-07-18T05:50:22.740Z,101048.75
2023-07-18T05:52:49.687Z,101048.78
2023-07-18T05:55:16.139Z,101045.22
2023-07-18T05:57:42.719Z,101047.88
2023-07-18T06:00:11.301Z,101040.63
2023-07-18T06:02:38.083Z,101044.19
2023-07-18T06:05:06.072Z,101038.81
2023-07-18T06:07:32.472Z,101042.34
2023-07-18T06:09:59.084Z,101043.25
2023-07-18T06:12:26.545Z,101029.84
2023-07-18T06:14:54.109Z,101021.78
2023-07-18T06:17:20.504Z,101032.47
2023-07-18T06:19:47.561Z,101025.31
2023-07-18T06:22:14.462Z,101021.66
2023-07-18T06:24:40.978Z,101017.06
2023-07-18T06:27:07.416Z,101018.66
2023-07-18T06:29:33.803Z,101018.47
2023-07-18T06:32:01.948Z,101023.66
2023-07-18T06:34:31.710Z,101020.00
2023-07-18T06:37:03.229Z,101018.19
2023-07-18T06:39:30.502Z,101013.59
2023-07-18T06:41:58.851Z,101019.78
2023-07-18T06:44:25.804Z,101008.06
2023-07-18T06:46:52.235Z,101011.50
2023-07-18T06:49:19.850Z,101015.00
2023-07-18T06:51:46.241Z,101005.06
2023-07-18T06:54:12.618Z,101005.84
2023-07-18T06:56:40.272Z,101004.84
2023-07-18T06:59:07.728Z,100998.41
2023-07-18T07:01:34.516Z,101011.72
2023-07-18T07:04:02.255Z,101001.81
2023-07-18T07:06:28.682Z,100998.31
2023-07-18T07:08:55.083Z,101004.31
2023-07-18T07:11:21.709Z,101002.84
2023-07-18T07:13:48.501Z,101007.75
2023-07-18T07:16:15.085Z,100999.00
2023-07-18T07:18:41.493Z,100996.34
2023-07-18T07:21:07.970Z,100993.81
2023-07-18T07:23:34.417Z,100996.47
2023-07-18T07:26:01.194Z,100990.75
2023-07-18T07:28:27.586Z,101001.50
2023-07-18T07:30:54.158Z,100993.84
2023-07-18T07:33:20.608Z,100998.22
2023-07-18T07:35:47.761Z,100990.19
2023-07-18T07:38:15.967Z,100993.19
2023-07-18T07:40:42.503Z,100987.28
2023-07-18T07:43:08.860Z,100978.19
2023-07-18T07:45:35.231Z,100984.28
2023-07-18T07:48:01.739Z,100978.47
2023-07-18T07:50:28.156Z,100977.56
2023-07-18T07:52:54.524Z,100980.84
2023-07-18T07:55:20.900Z,100967.53
2023-07-18T07:57:47.588Z,100957.81
2023-07-18T08:00:14.508Z,100966.81
2023-07-18T08:02:41.010Z,100958.28
2023-07-18T08:05:09.840Z,100968.78
2023-07-18T08:07:36.363Z,100959.56
2023-07-18T08:10:02.732Z,100953.06
2023-07-18T08:12:29.152Z,100962.44
2023-07-18T08:14:55.611Z,100948.16
2023-07-18T08:17:21.998Z,100953.56
2023-07-18T08:19:48.428Z,100948.94
2023-07-18T08:22:14.840Z,100940.13
2023-07-18T08:24:41.177Z,100932.91
2023-07-18T08:27:07.875Z,100939.69
2023-07-18T08:29:34.809Z,100934.97
2023-07-18T08:32:01.675Z,100934.78
2023-07-18T08:34:28.368Z,100939.31
2023-07-18T08:36:54.932Z,100935.63
2023-07-18T08:39:21.299Z,100932.53
2023-07-18T08:41:52.571Z,100932.50
2023-07-18T08:44:22.655Z,100926.16
2023-07-18T08:46:49.431Z,100903.47
2023-07-18T08:49:19.452Z,100909.88
2023-07-18T08:51:46.505Z,100905.53
2023-07-18T08:54:17.461Z,100898.91
2023-07-18T08:56:45.099Z,100897.03
2023-07-18T08:59:12.212Z,100897.03
2023-07-18T09:01:49.023Z,100897.31
2023-07-18T09:04:16.439Z,100900.19
2023-07-18T09:06:50.674Z,100891.22
2023-07-18T09:09:18.874Z,100887.63
2023-07-18T09:12:00.635Z,100869.47
2023-07-18T09:14:31.852Z,100866.91
2023-07-18T09:17:01.455Z,100857.75
2023-07-18T09:19:38.353Z,100838.56
2023-07-18T09:22:09.772Z,100830.13
2023-07-18T09:24:37.003Z,100826.91
2023-07-18T09:27:08.126Z,100825.13
2023-07-18T09:29:35.352Z,100838.84
2023-07-18T09:32:02.326Z,100836.13
2023-07-18T09:34:29.092Z,100814.09
2023-07-18T09:37:00.863Z,100817.19
2023-07-18T09:39:29.112Z,100807.69
2023-07-18T09:41:56.988Z,100808.88
2023-07-18T09:44:33.266Z,100805.88
2023-07-18T09:47:01.736Z,100822.22
2023-07-18T09:49:33.107Z,100821.34
2023-07-18T09:52:04.840Z,100828.16
2023-07-18T09:54:32.666Z,100828.88
2023-07-18T09:57:07.164Z,100831.44
2023-07-18T09:59:38.549Z,100822.00
2023-07-18T10:02:07.291Z,100836.91
2023-07-18T10:04:34.983Z,100829.94
2023-07-18T10:07:03.318Z,100846.91
2023-07-18T10:09:33.850Z,100871.41
2023-07-18T10:12:00.215Z,100869.72
2023-07-18T10:14:31.085Z,100873.06
2023-07-18T10:17:06.682Z,100865.56
2023-07-18T10:19:48.951Z,100861.47
2023-07-18T10:22:32.156Z,100876.81
2023-07-18T10:25:07.010Z,100867.94
2023-07-18T10:27:42.096Z,100867.44
2023-07-18T10:30:13.851Z,100849.03
2023-07-18T10:32:42.441Z,100832.97
2023-07-18T10:35:14.301Z,100812.63
2023-07-18T10:37:53.427Z,100816.94
2023-07-18T10:40:40.241Z,100816.16
2023-07-18T10:43:11.642Z,100804.34
2023-07-18T10:45:39.784Z,100785.59
2023-07-18T10:48:17.320Z,100765.00
2023-07-18T10:50:45.449Z,100762.47
2023-07-18T10:53:18.664Z,100768.97
2023-07-18T10:55:46.796Z,100759.94
2023-07-18T10:58:21.485Z,100758.06
2023-07-18T11:00:49.746Z,100750.00
2023-07-18T11:03:24.086Z,100741.47
2023-07-18T11:05:51.861Z,100744.44
2023-07-18T11:08:29.272Z,100737.22
2023-07-18T11:11:00.049Z,100736.19
2023-07-18T11:13:37.755Z,100727.22
2023-07-18T11:16:13.071Z,100720.97
2023-07-18T11:18:43.156Z,100721.16
2023-07-18T11:21:10.179Z,100716.22
2023-07-18T11:23:37.668Z,100718.88
2023-07-18T11:26:14.505Z,100706.44
2023-07-18T11:28:42.261Z,100693.81
2023-07-18T11:31:40.850Z,100702.31
2023-07-18T11:34:08.698Z,100709.88
2023-07-18T11:36:38.942Z,100697.41
2023-07-18T11:39:23.074Z,100700.91
2023-07-18T11:41:52.512Z,100708.00
2023-07-18T11:44:26.803Z,100698.25
2023-07-18T11:46:53.860Z,100709.75
2023-07-18T11:49:33.939Z,100707.31
2023-07-18T11:52:02.533Z,100700.28
2023-07-18T11:54:28.931Z,100696.00
2023-07-18T11:56:55.325Z,100680.25
2023-07-18T11:59:22.797Z,100688.84
2023-07-18T12:01:49.274Z,100681.19
2023-07-18T12:04:16.042Z,100669.19
2023-07-18T12:06:42.542Z,100663.28
2023-07-18T12:09:09.138Z,100672.34
2023-07-18T12:11:35.509Z,100668.31
2023-07-18T12:14:03.473Z,100665.59
2023-07-18T12:16:30.035Z,100661.28
2023-07-18T12:18:56.514Z,100654.63
2023-07-18T12:21:22.988Z,100656.66
2023-07-18T12:23:49.344Z,100650.50
2023-07-18T12:26:15.747Z,100645.19
2023-07-18T12:28:42.135Z,100638.16
2023-07-18T12:31:09.155Z,100615.00
2023-07-18T12:33:35.670Z,100613.94
2023-07-18T12:36:02.044Z,100604.25
2023-07-18T12:38:30.077Z,100599.38
2023-07-18T12:40:56.659Z,100589.47
2023-07-18T12:43:23.161Z,100585.97
2023-07-18T12:45:49.541Z,100584.16
2023-07-18T12:48:16.153Z,100569.94
2023-07-18T12:50:44.095Z,100571.84
2023-07-18T12:53:10.516Z,100567.00
2023-07-18T12:55:36.970Z,100562.59
2023-07-18T12:58:03.393Z,100558.44
2023-07-18T13:00:29.795Z,100570.78
2023-07-18T13:02:56.949Z,100565.75
2023-07-18T13:05:23.554Z,100564.28
2023-07-18T13:07:50.133Z,100553.28
2023-07-18T13:10:16.550Z,100554.28
2023-07-18T13:12:42.933Z,100541.28
2023-07-18T13:15:09.546Z,100536.63
2023-07-18T13:17:36.043Z,100524.25
2023-07-18T13:20:02.577Z,100517.56
2023-07-18T13:22:29.008Z,100515.25
2023-07-18T13:24:55.438Z,100512.13
2023-07-18T13:27:21.771Z,100515.63
2023-07-18T13:29:48.341Z,100518.66
2023-07-18T13:32:15.089Z,100508.06
2023-07-18T13:34:41.524Z,100501.50
2023-07-18T13:37:07.964Z,100500.72
2023-07-18T13:39:34.404Z,100502.69
2023-07-18T13:42:00.815Z,100504.06
2023-07-18T13:44:27.283Z,100503.13
2023-07-18T13:46:53.799Z,100497.63
2023-07-18T13:49:20.222Z,100502.78
2023-07-18T13:51:47.346Z,100496.72
2023-07-18T13:54:13.683Z,100497.72
2023-07-18T13:56:40.037Z,100495.66
2023-07-18T13:59:06.408Z,100494.19
2023-07-18T14:01:32.897Z,100486.47
2023-07-18T14:03:59.480Z,100487.69
2023-07-18T14:06:25.914Z,100492.28
2023-07-18T14:08:52.861Z,100496.94
2023-07-18T14:11:19.283Z,100500.72
2023-07-18T14:13:47.254Z,100502.56
2023-07-18T14:16:13.742Z,100488.94
2023-07-18T14:18:40.146Z,100491.28
2023-07-18T14:21:06.568Z,100496.28
2023-07-18T14:23:33.064Z,100493.69
2023-07-18T14:25:59.460Z,100491.84
2023-07-18T14:28:25.817Z,100475.69
2023-07-18T14:30:52.382Z,100466.78
2023-07-18T14:33:19.322Z,100477.19
2023-07-18T14:35:45.870Z,100476.94
2023-07-18T14:38:12.349Z,100468.84
2023-07-18T14:40:39.107Z,100462.03
2023-07-18T14:43:10.247Z,100462.28
2023-07-18T14:45:37.790Z,100454.56
2023-07-18T14:48:04.707Z,100452.94
2023-07-18T14:50:32.284Z,100450.31
2023-07-18T14:52:58.744Z,100439.69
2023-07-18T14:55:25.133Z,100437.72
2023-07-18T14:57:51.675Z,100436.78
2023-07-18T15:00:19.632Z,100444.31
2023-07-18T15:02:48.562Z,100433.84
2023-07-18T15:05:15.902Z,100427.22
2023-07-18T15:07:42.258Z,100411.47
2023-07-18T15:10:09.315Z,100419.34
2023-07-18T15:12:39.231Z,100410.25
2023-07-18T15:15:06.264Z,100407.19
2023-07-18T15:17:45.804Z,100404.72
2023-07-18T15:20:13.745Z,100398.50
2023-07-18T15:22:41.559Z,100400.50
2023-07-18T15:25:10.301Z,100392.53
2023-07-18T15:27:37.989Z,100384.34
2023-07-18T15:30:07.858Z,100379.56
2023-07-18T15:32:36.427Z,100377.56
2023-07-18T15:35:04.881Z,100375.13
2023-07-18T15:37:32.396Z,100370.72
2023-07-18T15:39:59.102Z,100363.84
2023-07-18T15:42:25.725Z,100368.53
2023-07-18T15:44:52.129Z,100360.94
2023-07-18T15:47:19.762Z,100351.66
2023-07-18T15:49:46.497Z,100357.19
2023-07-18T15:52:12.835Z,100357.41
2023-07-18T15:54:39.191Z,100359.28
2023-07-18T15:57:07.529Z,100355.66
2023-07-18T15:59:34.084Z,100343.66
2023-07-18T16:02:00.504Z,100344.22
2023-07-18T16:04:26.932Z,100336.97
2023-07-18T16:06:53.449Z,100323.84
2023-07-18T16:09:25.582Z,100329.19
2023-07-18T16:11:51.972Z,100323.47
2023-07-18T16:14:18.610Z,100312.31
2023-07-18T16:16:45.523Z,100313.19
2023-07-18T16:19:11.930Z,100314.94
2023-07-18T16:21:40.128Z,100305.88
2023-07-18T16:24:07.327Z,100294.38
2023-07-18T16:26:36.489Z,100294.25
2023-07-18T16:29:03.408Z,100294.94
2023-07-18T16:31:31.373Z,100294.94
2023-07-18T16:33:57.862Z,100290.22
2023-07-18T16:36:25.259Z,100284.88
2023-07-18T16:38:52.794Z,100277.13
2023-07-18T16:41:19.632Z,100283.25
2023-07-18T16:43:46.343Z,100278.31
2023-07-18T16:46:12.798Z,100276.16
2023-07-18T16:48:39.168Z,100271.09
2023-07-18T16:51:05.573Z,100276.13
2023-07-18T16:53:31.948Z,100279.31
2023-07-18T16:55:58.296Z,100277.41
2023-07-18T16:58:26.102Z,100278.84
2023-07-18T17:00:52.500Z,100275.81
2023-07-18T17:03:20.781Z,100276.47
2023-07-18T17:05:47.343Z,100267.16
2023-07-18T17:08:13.762Z,100260.16
2023-07-18T17:10:40.138Z,100263.97
2023-07-18T17:13:07.277Z,100259.81
2023-07-18T17:15:33.813Z,100262.34
2023-07-18T17:18:00.264Z,100259.03
2023-07-18T17:20:26.742Z,100247.03
2023-07-18T17:22:54.373Z,100254.94
2023-07-18T17:25:21.242Z,100254.38
2023-07-18T17:27:47.741Z,100251.47
2023-07-18T17:30:15.127Z,100242.69
2023-07-18T17:32:41.636Z,100247.38
2023-07-18T17:35:08.490Z,100236.22
2023-07-18T17:37:34.842Z,100233.38
2023-07-18T17:40:02.003Z,100234.16
2023-07-18T17:42:28.555Z,100234.91
2023-07-18T17:44:56.587Z,100234.16
2023-07-18T17:47:23.142Z,100214.97
2023-07-18T17:49:49.516Z,100222.47
2023-07-18T17:52:15.882Z,100223.28
2023-07-18T17:54:42.543Z,100223.09
2023-07-18T17:57:08.880Z,100228.78
2023-07-18T17:59:35.271Z,100222.56
2023-07-18T18:02:01.718Z,100224.13
2023-07-18T18:04:28.114Z,100218.66
2023-07-18T18:06:54.492Z,100221.94
2023-07-18T18:09:21.193Z,100214.84
2023-07-18T18:11:47.569Z,100212.56
2023-07-18T18:14:15.188Z,100221.41
2023-07-18T18:16:41.692Z,100218.78
2023-07-18T18:19:08.073Z,100216.59
2023-07-18T18:21:34.491Z,100223.81
2023-07-18T18:24:00.878Z,100226.00
2023-07-18T18:26:27.294Z,100221.53
2023-07-18T18:28:54.160Z,100226.13
2023-07-18T18:31:20.838Z,100216.34
2023-07-18T18:33:47.394Z,100218.53
2023-07-18T18:36:13.932Z,100230.53
2023-07-18T18:38:40.358Z,100225.50
2023-07-18T18:41:06.966Z,100228.16
2023-07-18T18:43:34.123Z,100230.00
2023-07-18T18:46:00.681Z,100227.91
2023-07-18T18:48:27.197Z,100223.16
2023-07-18T18:50:53.600Z,100223.38
2023-07-18T18:53:22.042Z,100231.59
2023-07-18T18:55:48.438Z,100226.34
2023-07-18T18:58:14.851Z,100226.09
2023-07-18T19:00:41.274Z,100221.25
2023-07-18T19:03:07.739Z,100214.59
2023-07-18T19:05:34.262Z,100201.72
2023-07-18T19:08:00.643Z,100210.09
2023-07-18T19:10:27.628Z,100207.91
2023-07-18T19:12:54.328Z,100207.84
2023-07-18T19:15:20.902Z,100214.25
2023-07-18T19:17:47.363Z,100220.50
2023-07-18T19:20:13.869Z,100230.84
2023-07-18T19:22:40.384Z,100223.59
2023-07-18T19:25:08.908Z,100216.72
2023-07-18T19:27:36.413Z,100215.41
2023-07-18T19:30:06.672Z,100222.72
2023-07-18T19:32:33.504Z,100236.88
2023-07-18T19:35:00.741Z,100230.44
2023-07-18T19:37:27.146Z,100234.41
2023-07-18T19:39:53.621Z,100245.16
2023-07-18T19:42:19.963Z,100241.06
2023-07-18T19:44:48.228Z,100251.81
2023-07-18T19:47:15.368Z,100257.28
2023-07-18T19:49:41.851Z,100248.91
2023-07-18T19:52:08.366Z,100240.47
2023-07-18T19:54:34.920Z,100236.44
2023-07-18T19:57:01.298Z,100228.44
2023-07-18T19:59:28.129Z,100229.44
2023-07-18T20:01:54.610Z,100232.81
2023-07-18T20:04:21.694Z,100239.72
2023-07-18T20:06:48.085Z,100243.28
2023-07-18T20:09:14.521Z,100234.50
2023-07-18T20:11:40.929Z,100244.56
2023-07-18T20:14:07.355Z,100246.09
2023-07-18T20:16:34.049Z,100248.13
2023-07-18T20:19:02.989Z,100249.50
2023-07-18T20:21:30.200Z,100256.75
2023-07-18T20:23:56.924Z,100249.41
2023-07-18T20:26:23.396Z,100243.34
2023-07-18T20:28:49.823Z,100231.66
2023-07-18T20:31:16.780Z,100233.47
2023-07-18T20:33:43.566Z,100227.34
2023-07-18T20:36:10.274Z,100226.56
2023-07-18T20:38:36.653Z,100215.81
2023-07-18T20:41:03.059Z,100213.31
2023-07-18T20:43:29.421Z,100222.16
2023-07-18T20:45:59.618Z,100219.88
2023-07-18T20:48:27.557Z,100228.34
2023-07-18T20:50:53.961Z,100231.22
2023-07-18T20:53:20.283Z,100227.59
2023-07-18T20:55:46.646Z,100228.03
2023-07-18T20:58:13.772Z,100224.28
2023-07-18T21:00:40.154Z,100219.66
2023-07-18T21:03:06.632Z,100227.69
2023-07-18T21:05:33.336Z,100224.22
2023-07-18T21:08:01.585Z,100228.94
2023-07-18T21:10:28.002Z,100227.69
2023-07-18T21:12:54.444Z,100230.91
2023-07-18T21:15:20.868Z,100225.66
2023-07-18T21:17:47.304Z,100224.59
2023-07-18T21:20:13.822Z,100218.56
2023-07-18T21:22:40.241Z,100226.09
2023-07-18T21:25:07.042Z,100222.16
2023-07-18T21:27:33.639Z,100231.50
2023-07-18T21:30:00.083Z,100226.97
2023-07-18T21:32:26.532Z,100233.69
2023-07-18T21:34:52.984Z,100230.25
2023-07-18T21:37:19.355Z,100227.03
2023-07-18T21:39:45.766Z,100216.47
2023-07-18T21:42:12.189Z,100217.53
2023-07-18T21:44:38.657Z,100230.69
2023-07-18T21:47:05.265Z,100225.97
2023-07-18T21:49:31.658Z,100218.53
2023-07-18T21:51:58.062Z,100215.75
2023-07-18T21:54:24.520Z,100228.91
2023-07-18T21:56:52.108Z,100221.06
2023-07-18T21:59:18.502Z,100212.44
2023-07-18T22:01:46.014Z,100218.94
2023-07-18T22:04:12.458Z,100210.09
2023-07-18T22:06:38.802Z,100204.69
2023-07-18T22:09:06.880Z,100206.34
2023-07-18T22:11:35.484Z,100208.88
2023-07-18T22:14:02.063Z,100210.09
2023-07-18T22:16:28.487Z,100202.06
2023-07-18T22:18:54.868Z,100199.66
2023-07-18T22:21:21.440Z,100203.34
2023-07-18T22:23:48.062Z,100206.16
2023-07-18T22:26:15.018Z,100210.66
2023-07-18T22:28:42.657Z,100205.19
2023-07-18T22:31:11.443Z,100207.91
2023-07-18T22:33:38.046Z,100196.16
2023-07-18T22:36:04.650Z,100187.84
2023-07-18T22:38:31.042Z,100186.03
2023-07-18T22:40:58.535Z,100188.47
2023-07-18T22:43:24.902Z,100201.44
2023-07-18T22:45:51.435Z,100196.72
2023-07-18T22:48:22.390Z,100195.75
2023-07-18T22:50:52.057Z,100200.38
2023-07-18T22:53:19.470Z,100194.25
2023-07-18T22:55:49.230Z,100199.63
2023-07-18T22:58:17.453Z,100186.97
2023-07-18T23:00:43.894Z,100186.13
2023-07-18T23:03:10.646Z,100194.34
2023-07-18T23:05:37.131Z,100191.94
2023-07-18T23:08:05.435Z,100190.56
2023-07-18T23:10:32.333Z,100193.59
2023-07-18T23:12:59.513Z,100200.31
2023-07-18T23:15:25.910Z,100199.78
2023-07-18T23:17:52.265Z,100202.75
2023-07-18T23:20:18.632Z,100204.78
2023-07-18T23:22:44.985Z,100209.38
2023-07-18T23:25:11.413Z,100202.06
2023-07-18T23:27:37.772Z,100204.19
2023-07-18T23:30:04.793Z,100204.13
2023-07-18T23:32:31.359Z,100200.25
2023-07-18T23:34:58.318Z,100200.22
2023-07-18T23:37:24.710Z,100197.66
2023-07-18T23:39:53.058Z,100198.47
2023-07-18T23:42:19.510Z,100195.03
2023-07-18T23:44:45.881Z,100183.47
2023-07-18T23:47:14.389Z,100182.59
2023-07-18T23:49:40.747Z,100177.38
2023-07-18T23:52:07.463Z,100186.75
2023-07-18T23:54:33.832Z,100181.88
2023-07-18T23:57:00.435Z,100185.00
2023-07-18T23:59:27.666Z,100188.09
